Time;durP1;ratioP1;P1;durP2;ratioP2;P2;SDS_P1;SDS_P2;PMS_P1;PMS_P2;Temp;Humidity;BMP_temperature;BMP_pressure;BME280_temperature;BME280_humidity;BME280_pressure;Samples;Min_cycle;Max_cycle;Signal;HPM_P1;HPM_P2
2021/09/15 00:00:20;;;;;;;35.80;23.23;;;;;;;15.98;63.10;98664.69;5090844;28;20028;-75
2021/09/15 00:02:45;;;;;;;33.65;22.20;;;;;;;15.95;62.96;98673.66;5090260;28;20077;-74
2021/09/15 00:05:10;;;;;;;33.92;23.15;;;;;;;15.92;62.97;98660.47;5091008;28;20035;-74
2021/09/15 00:07:36;;;;;;;37.20;25.02;;;;;;;15.92;63.42;98660.47;5075926;28;20016;-74
2021/09/15 00:10:02;;;;;;;36.10;23.23;;;;;;;15.92;63.41;98657.72;5083474;28;20024;-75
2021/09/15 00:12:27;;;;;;;33.58;22.88;;;;;;;15.92;62.95;98660.47;5095802;28;20160;-74
2021/09/15 00:14:53;;;;;;;33.65;23.20;;;;;;;15.91;62.95;98665.16;5107447;28;20102;-74
2021/09/15 00:17:19;;;;;;;33.03;22.02;;;;;;;15.87;63.49;98664.22;5113262;28;20027;-73
2021/09/15 00:19:44;;;;;;;33.97;22.42;;;;;;;15.83;62.86;98665.16;5114975;28;20133;-73
2021/09/15 00:22:10;;;;;;;32.58;23.17;;;;;;;15.79;62.94;98670.53;5114938;28;20126;-73
2021/09/15 00:24:35;;;;;;;30.83;21.65;;;;;;;15.74;63.38;98665.16;5095491;28;20032;-76
2021/09/15 00:27:00;;;;;;;37.10;23.10;;;;;;;15.75;62.99;98664.03;5093935;28;20365;-74
2021/09/15 00:29:26;;;;;;;32.03;22.92;;;;;;;15.78;63.33;98668.91;5107730;28;20532;-74
2021/09/15 00:31:51;;;;;;;31.52;23.27;;;;;;;15.78;63.18;98664.19;5115204;28;20383;-71
2021/09/15 00:34:17;;;;;;;32.95;23.15;;;;;;;15.80;63.71;98666.63;5115038;28;20043;-71
2021/09/15 00:36:42;;;;;;;33.58;22.08;;;;;;;15.81;63.18;98664.66;5114267;28;20103;-71
2021/09/15 00:39:07;;;;;;;34.30;23.02;;;;;;;15.83;63.57;98673.44;5114835;28;20383;-71
2021/09/15 00:41:33;;;;;;;32.47;23.27;;;;;;;15.80;63.34;98666.63;5100891;28;20040;-71
2021/09/15 00:44:08;;;;;;;32.88;23.00;;;;;;;15.81;63.41;98671.03;5072578;28;20032;-71
2021/09/15 00:46:35;;;;;;;32.38;22.50;;;;;;;15.80;63.22;98668.56;5090361;28;20629;-70
2021/09/15 00:49:01;;;;;;;32.45;23.00;;;;;;;15.74;63.56;98671.50;5097956;28;20039;-71
2021/09/15 00:51:27;;;;;;;32.95;21.88;;;;;;;15.67;63.21;98670.38;5091394;28;20073;-71
2021/09/15 00:53:53;;;;;;;32.67;22.88;;;;;;;15.57;63.28;98677.84;5092995;28;20689;-71
2021/09/15 00:56:18;;;;;;;31.48;22.45;;;;;;;15.52;63.29;98675.22;5097933;28;20023;-71
2021/09/15 00:58:44;;;;;;;30.95;21.48;;;;;;;15.52;63.30;98679.97;5096230;28;20453;-71
2021/09/15 01:01:10;;;;;;;29.35;21.00;;;;;;;15.44;63.55;98674.09;5096700;28;20757;-71
2021/09/15 01:03:35;;;;;;;33.13;22.00;;;;;;;15.39;63.60;98667.91;5094344;28;20032;-72
2021/09/15 01:06:01;;;;;;;31.08;21.08;;;;;;;15.29;63.36;98667.09;5095525;28;20039;-71
2021/09/15 01:08:27;;;;;;;29.90;21.30;;;;;;;15.17;63.43;98664.97;5092061;28;20030;-71
2021/09/15 01:10:54;;;;;;;28.60;21.17;;;;;;;15.08;63.87;98655.84;5095617;28;20379;-71
2021/09/15 01:13:21;;;;;;;29.80;21.40;;;;;;;15.04;63.81;98660.38;5075795;28;20051;-71
2021/09/15 01:15:46;;;;;;;33.65;21.45;;;;;;;15.06;64.10;98660.88;5099053;28;20051;-71
2021/09/15 01:18:16;;;;;;;34.17;22.92;;;;;;;15.12;64.15;98667.03;5094176;28;20472;-71
2021/09/15 01:20:41;;;;;;;36.47;24.15;;;;;;;15.19;64.70;98661.84;5089891;28;20067;-71
2021/09/15 01:23:06;;;;;;;34.53;23.23;;;;;;;15.25;64.67;98668.06;5090407;28;20119;-71
2021/09/15 01:25:32;;;;;;;36.67;24.10;;;;;;;15.26;64.26;98659.44;5090570;28;20043;-70
2021/09/15 01:27:57;;;;;;;36.85;23.67;;;;;;;15.27;64.40;98655.53;5095507;28;20027;-71
2021/09/15 01:30:23;;;;;;;32.60;23.75;;;;;;;15.30;64.29;98654.91;5096646;28;20028;-70
2021/09/15 01:32:48;;;;;;;37.15;23.15;;;;;;;15.30;64.54;98656.84;5096499;28;20028;-71
2021/09/15 01:35:14;;;;;;;33.85;22.77;;;;;;;15.27;64.26;98663.03;5093673;28;20499;-71
2021/09/15 01:37:39;;;;;;;34.25;21.60;;;;;;;15.21;64.03;98667.09;5096337;28;20034;-71
2021/09/15 01:40:05;;;;;;;35.38;22.08;;;;;;;15.16;64.37;98660.56;5093579;28;20028;-71
2021/09/15 01:42:31;;;;;;;31.27;22.58;;;;;;;15.19;64.09;98667.38;5094246;28;20152;-70
2021/09/15 01:44:56;;;;;;;33.85;22.90;;;;;;;15.22;64.16;98663.19;5093570;28;20457;-71
2021/09/15 01:47:22;;;;;;;31.95;21.95;;;;;;;15.20;64.42;98659.94;5094354;28;20483;-71
2021/09/15 01:49:47;;;;;;;38.55;23.85;;;;;;;15.15;64.12;98658.94;5088283;28;20044;-71
2021/09/15 01:52:14;;;;;;;36.17;22.63;;;;;;;15.16;64.24;98659.75;5092442;28;20054;-71
2021/09/15 01:54:40;;;;;;;31.30;22.67;;;;;;;15.17;64.63;98661.38;5090839;28;20073;-71
2021/09/15 01:57:06;;;;;;;30.60;21.13;;;;;;;15.18;64.32;98649.19;5090742;28;20033;-71
2021/09/15 01:59:31;;;;;;;31.77;22.08;;;;;;;15.17;64.33;98653.91;5073318;28;20479;-71
2021/09/15 02:01:57;;;;;;;28.38;21.08;;;;;;;15.16;64.45;98656.97;5090794;28;20020;-71
2021/09/15 02:04:22;;;;;;;30.55;21.95;;;;;;;15.12;64.03;98659.59;5091937;28;20099;-71
2021/09/15 02:06:48;;;;;;;31.88;22.67;;;;;;;15.11;64.28;98649.66;5089991;28;20033;-71
2021/09/15 02:09:14;;;;;;;32.65;22.13;;;;;;;15.12;64.10;98644.94;5093973;28;20479;-70
2021/09/15 02:11:40;;;;;;;33.13;22.42;;;;;;;15.10;64.40;98655.50;5078052;28;20116;-70
2021/09/15 02:14:06;;;;;;;31.42;23.05;;;;;;;15.07;64.27;98653.41;5098584;28;20015;-71
2021/09/15 02:16:32;;;;;;;32.65;21.60;;;;;;;15.06;64.40;98651.78;5094956;28;21435;-71
2021/09/15 02:18:58;;;;;;;34.42;21.83;;;;;;;15.03;64.15;98643.00;5095546;28;20526;-71
2021/09/15 02:21:24;;;;;;;29.90;21.52;;;;;;;14.97;63.97;98635.16;5099262;28;20122;-70
2021/09/15 02:23:49;;;;;;;32.08;21.65;;;;;;;14.94;64.26;98644.09;5095763;28;20035;-70
2021/09/15 02:26:15;;;;;;;35.88;21.92;;;;;;;14.91;64.13;98639.22;5095837;28;20021;-71
2021/09/15 02:28:41;;;;;;;33.00;22.92;;;;;;;14.91;64.47;98644.72;5094243;28;20081;-69
2021/09/15 02:31:07;;;;;;;31.40;21.20;;;;;;;14.86;64.48;98634.66;5095599;28;20015;-71
2021/09/15 02:33:33;;;;;;;32.45;21.58;;;;;;;14.85;63.75;98646.84;5091988;28;20047;-71
2021/09/15 02:35:59;;;;;;;31.17;21.65;;;;;;;14.78;64.40;98649.25;5093076;28;20666;-70
2021/09/15 02:38:24;;;;;;;33.17;22.02;;;;;;;14.74;64.45;98644.34;5094613;28;20019;-70
2021/09/15 02:40:49;;;;;;;31.83;21.85;;;;;;;14.73;64.21;98647.44;5093742;28;20017;-70
2021/09/15 02:43:15;;;;;;;31.05;22.10;;;;;;;14.70;64.48;98650.84;5092600;28;20052;-70
2021/09/15 02:45:41;;;;;;;29.65;21.33;;;;;;;14.61;64.59;98650.78;5089885;28;20020;-71
2021/09/15 02:48:06;;;;;;;32.53;22.20;;;;;;;14.56;64.54;98651.72;5090460;28;20027;-70
2021/09/15 02:50:32;;;;;;;34.45;22.58;;;;;;;14.57;64.83;98647.03;5095031;28;20032;-70
2021/09/15 02:52:57;;;;;;;31.85;21.05;;;;;;;14.65;64.97;98653.72;5090647;28;20069;-71
2021/09/15 02:55:24;;;;;;;33.03;20.63;;;;;;;14.64;64.91;98650.16;5098540;28;20309;-70
2021/09/15 02:57:49;;;;;;;32.95;23.08;;;;;;;14.67;64.91;98646.72;5093612;28;20055;-71
2021/09/15 03:00:15;;;;;;;31.92;22.40;;;;;;;14.72;65.06;98649.38;5101889;28;20089;-71
2021/09/15 03:02:40;;;;;;;34.38;23.27;;;;;;;14.76;64.86;98649.56;5096421;28;20038;-71
2021/09/15 03:05:06;;;;;;;33.70;22.85;;;;;;;14.74;64.53;98646.31;5112300;28;20047;-71
2021/09/15 03:07:32;;;;;;;31.45;22.58;;;;;;;14.72;64.70;98659.63;5095733;28;20488;-70
2021/09/15 03:09:57;;;;;;;31.05;22.00;;;;;;;14.69;64.50;98651.97;5091649;28;20067;-71
2021/09/15 03:12:23;;;;;;;34.65;22.92;;;;;;;14.66;64.51;98656.19;5106039;28;20051;-71
2021/09/15 03:14:48;;;;;;;32.90;22.33;;;;;;;14.66;64.57;98652.59;5111812;28;20663;-71
2021/09/15 03:17:13;;;;;;;30.98;21.23;;;;;;;14.65;64.68;98649.03;5111718;28;20027;-70
2021/09/15 03:19:39;;;;;;;32.55;22.02;;;;;;;14.62;64.86;98649.66;5111565;28;20454;-71
2021/09/15 03:22:04;;;;;;;31.38;21.77;;;;;;;14.61;64.91;98638.91;5111681;28;20101;-71
2021/09/15 03:24:30;;;;;;;31.30;22.00;;;;;;;14.63;65.01;98639.41;5111911;28;20144;-70
2021/09/15 03:26:55;;;;;;;29.30;22.15;;;;;;;14.61;65.06;98631.47;5111546;28;20027;-71
2021/09/15 03:29:20;;;;;;;30.77;21.75;;;;;;;14.57;64.71;98633.22;5111656;28;20024;-70
2021/09/15 03:31:46;;;;;;;32.85;20.90;;;;;;;14.53;64.65;98644.09;5106414;28;20361;-71
2021/09/15 03:34:11;;;;;;;29.92;20.58;;;;;;;14.49;64.92;98637.56;5091343;28;20036;-70
2021/09/15 03:36:37;;;;;;;34.78;22.75;;;;;;;14.47;65.01;98642.59;5086304;28;20487;-71
2021/09/15 03:39:04;;;;;;;32.17;22.13;;;;;;;14.44;64.99;98637.72;5090518;28;20114;-71
2021/09/15 03:41:30;;;;;;;30.20;21.08;;;;;;;14.40;65.22;98634.78;5093131;28;20032;-71
2021/09/15 03:43:55;;;;;;;36.67;22.70;;;;;;;14.41;65.09;98632.84;5111320;28;20087;-71
2021/09/15 03:46:21;;;;;;;35.72;23.65;;;;;;;14.43;65.12;98625.88;5111213;28;20031;-70
2021/09/15 03:48:46;;;;;;;41.85;24.65;;;;;;;14.48;65.21;98637.91;5111075;28;20484;-71
2021/09/15 03:51:12;;;;;;;45.25;26.58;;;;;;;14.49;64.92;98637.56;5090766;28;20123;-70
2021/09/15 03:53:38;;;;;;;52.47;29.20;;;;;;;14.50;65.21;98627.34;5094391;28;20467;-71
2021/09/15 03:56:03;;;;;;;49.05;28.33;;;;;;;14.48;65.06;98624.91;5111413;28;20081;-70
2021/09/15 03:58:29;;;;;;;45.88;26.85;;;;;;;14.48;65.35;98624.09;5101439;28;20427;-70
2021/09/15 04:00:54;;;;;;;49.92;29.40;;;;;;;14.48;65.31;98619.38;5090403;28;20028;-70
2021/09/15 04:03:19;;;;;;;47.75;28.58;;;;;;;14.48;65.54;98621.34;5090924;28;20436;-70
2021/09/15 04:05:45;;;;;;;42.30;26.17;;;;;;;14.48;65.36;98622.13;5090947;28;20490;-70
2021/09/15 04:08:10;;;;;;;45.58;26.05;;;;;;;14.46;65.03;98627.19;5090632;28;20032;-70
2021/09/15 04:10:36;;;;;;;42.78;26.65;;;;;;;14.44;65.40;98632.22;5090825;28;20384;-70
2021/09/15 04:13:01;;;;;;;40.83;25.80;;;;;;;14.42;65.28;98624.25;5090868;28;20103;-70
2021/09/15 04:15:26;;;;;;;39.35;24.77;;;;;;;14.43;65.66;98622.31;5090873;28;20020;-70
2021/09/15 04:17:52;;;;;;;38.85;24.63;;;;;;;14.38;65.31;98620.47;5107884;28;20433;-70
2021/09/15 04:20:17;;;;;;;36.58;24.20;;;;;;;14.39;65.19;98613.84;5110553;28;20051;-70
2021/09/15 04:22:44;;;;;;;34.22;24.35;;;;;;;14.42;65.38;98615.16;5102739;28;20049;-69
2021/09/15 04:33:21;;;;;;;38.28;24.70;;;;;;;14.39;65.38;98607.50;5089664;28;20035;-70
2021/09/15 04:35:46;;;;;;;39.63;25.85;;;;;;;14.38;65.44;98609.44;5109482;28;20020;-70
2021/09/15 04:38:12;;;;;;;36.03;24.35;;;;;;;14.36;65.67;98608.94;5110752;28;20480;-71
2021/09/15 04:40:37;;;;;;;35.92;24.20;;;;;;;14.33;65.69;98617.06;5108700;28;20016;-70
2021/09/15 04:43:03;;;;;;;38.70;24.58;;;;;;;14.29;65.26;98614.09;5090312;28;20031;-70
2021/09/15 04:45:28;;;;;;;34.53;23.52;;;;;;;14.25;65.39;98618.66;5090164;28;20028;-70
2021/09/15 04:47:54;;;;;;;34.55;24.73;;;;;;;14.27;65.63;98621.88;5090044;28;20021;-70
2021/09/15 04:50:20;;;;;;;36.83;24.83;;;;;;;14.29;65.90;98620.44;5090273;28;20472;-70
2021/09/15 04:52:45;;;;;;;38.85;24.85;;;;;;;14.35;65.77;98629.41;5092421;28;20111;-71
2021/09/15 04:55:10;;;;;;;38.67;25.63;;;;;;;14.39;65.72;98624.06;5109292;28;20033;-70
2021/09/15 04:57:36;;;;;;;38.00;25.30;;;;;;;14.41;65.99;98624.56;5114315;28;20031;-70
2021/09/15 05:00:03;;;;;;;35.22;23.77;;;;;;;14.43;66.04;98625.06;5114438;28;20028;-70
2021/09/15 05:02:28;;;;;;;33.60;24.10;;;;;;;14.44;65.78;98621.19;5113943;28;20110;-71
2021/09/15 05:04:54;;;;;;;32.55;23.45;;;;;;;14.47;65.63;98626.03;5114480;28;20054;-70
2021/09/15 05:07:19;;;;;;;33.40;22.42;;;;;;;14.49;66.04;98618.25;5096405;28;20055;-71
2021/09/15 05:09:44;;;;;;;41.60;24.70;;;;;;;14.53;65.85;98627.53;5114576;28;20030;-71
2021/09/15 05:12:10;;;;;;;37.30;23.85;;;;;;;14.57;66.12;98624.97;5114331;28;20055;-70
2021/09/15 05:14:36;;;;;;;33.15;24.00;;;;;;;14.56;65.91;98613.09;5093740;28;20422;-70
2021/09/15 05:17:01;;;;;;;36.20;23.77;;;;;;;14.53;66.10;98615.69;5094886;28;20067;-71
2021/09/15 05:19:27;;;;;;;33.67;23.60;;;;;;;14.51;66.28;98620.72;5109057;28;20048;-71
2021/09/15 05:21:52;;;;;;;36.58;24.73;;;;;;;14.51;66.15;98616.00;5040643;28;20033;-70
2021/09/15 05:24:18;;;;;;;38.42;24.42;;;;;;;14.52;66.66;98611.28;5053621;28;20029;-71
2021/09/15 05:26:43;;;;;;;33.63;23.55;;;;;;;14.51;66.47;98609.66;5053274;28;20317;-70
2021/09/15 05:29:08;;;;;;;36.60;23.05;;;;;;;14.54;66.39;98618.13;5063379;28;20059;-70
2021/09/15 05:31:34;;;;;;;36.13;24.23;;;;;;;14.56;66.75;98621.38;5068148;28;20388;-70
2021/09/15 05:33:59;;;;;;;32.28;22.60;;;;;;;14.61;66.83;98619.59;5052748;28;20060;-71
2021/09/15 05:36:25;;;;;;;30.58;22.50;;;;;;;14.63;66.81;98618.16;5053291;28;20075;-71
2021/09/15 05:38:50;;;;;;;32.78;22.80;;;;;;;14.68;66.95;98614.44;5052507;28;20512;-71
2021/09/15 05:41:16;;;;;;;30.42;21.90;;;;;;;14.73;66.96;98619.84;5058680;28;20019;-71
2021/09/15 05:43:41;;;;;;;29.23;20.35;;;;;;;14.78;66.63;98619.69;5072462;28;20418;-71
2021/09/15 05:46:07;;;;;;;31.00;21.98;;;;;;;14.81;66.93;98621.81;5071565;28;20020;-71
2021/09/15 05:48:32;;;;;;;32.05;21.42;;;;;;;14.89;67.12;98625.72;5072722;28;20154;-71
2021/09/15 05:50:57;;;;;;;30.00;20.98;;;;;;;14.96;67.12;98628.00;5072906;28;20027;-72
2021/09/15 05:53:23;;;;;;;31.38;21.15;;;;;;;15.02;67.01;98615.69;5072647;28;20024;-72
2021/09/15 05:55:48;;;;;;;28.98;20.75;;;;;;;15.07;67.14;98614.75;5072730;28;20542;-71
2021/09/15 05:58:15;;;;;;;27.88;19.80;;;;;;;15.11;67.07;98618.44;5072374;28;20027;-72
2021/09/15 06:00:41;;;;;;;30.52;20.25;;;;;;;15.16;67.29;98621.91;5072665;28;20024;-71
2021/09/15 06:03:06;;;;;;;33.85;20.75;;;;;;;15.20;67.08;98615.72;5070235;28;20697;-71
2021/09/15 06:05:32;;;;;;;32.13;21.55;;;;;;;15.22;67.51;98614.25;5072267;28;20025;-71
2021/09/15 06:07:57;;;;;;;33.10;23.38;;;;;;;15.26;67.66;98608.91;5072432;28;20021;-71
2021/09/15 06:10:22;;;;;;;39.08;24.50;;;;;;;15.24;67.18;98611.97;5072421;28;20435;-71
2021/09/15 06:12:48;;;;;;;43.13;25.77;;;;;;;15.28;67.96;98612.16;5072216;28;20031;-71
2021/09/15 06:15:13;;;;;;;36.67;23.08;;;;;;;15.31;67.75;98605.97;5072234;28;20024;-72
2021/09/15 06:17:39;;;;;;;36.72;23.33;;;;;;;15.35;68.08;98608.91;5072130;28;20027;-71
2021/09/15 06:20:04;;;;;;;34.58;23.50;;;;;;;15.38;67.62;98608.25;5057908;28;20458;-71
2021/09/15 06:22:30;;;;;;;34.45;23.10;;;;;;;15.43;67.68;98608.09;5112348;28;20122;-71
2021/09/15 06:24:57;;;;;;;32.92;22.48;;;;;;;15.50;68.08;98613.94;5113014;28;20027;-71
2021/09/15 06:27:24;;;;;;;30.63;21.52;;;;;;;15.57;67.76;98619.78;5113108;28;20028;-71
2021/09/15 06:29:50;;;;;;;30.95;22.52;;;;;;;15.65;68.10;98615.41;5106419;28;20028;-72
2021/09/15 06:32:20;;;;;;;32.28;23.88;;;;;;;15.71;68.10;98605.78;5092292;28;20028;-71
2021/09/15 06:34:46;;;;;;;32.78;22.90;;;;;;;15.78;67.99;98610.84;5091782;28;20020;-71
2021/09/15 06:37:14;;;;;;;29.10;21.98;;;;;;;15.83;68.01;98613.44;5099941;28;20027;-71
2021/09/15 06:39:39;;;;;;;32.78;22.33;;;;;;;15.86;68.19;98612.81;5090982;28;20084;-71
2021/09/15 06:42:05;;;;;;;32.75;22.05;;;;;;;15.93;68.13;98606.78;5083275;28;20103;-71
2021/09/15 06:44:32;;;;;;;29.55;21.33;;;;;;;16.03;68.15;98611.16;5060396;28;20037;-68
2021/09/15 06:46:58;;;;;;;28.90;21.10;;;;;;;16.11;68.30;98609.50;5086604;28;20040;-69
2021/09/15 06:49:23;;;;;;;31.08;21.65;;;;;;;16.17;67.88;98597.94;5088934;28;20024;-69
2021/09/15 06:51:49;;;;;;;31.35;19.98;;;;;;;16.20;68.10;98605.56;5107552;28;20030;-68
2021/09/15 06:54:14;;;;;;;27.73;20.50;;;;;;;16.19;68.23;98598.41;5107323;28;20349;-68
2021/09/15 06:56:39;;;;;;;29.65;20.90;;;;;;;16.20;68.17;98601.97;5087397;28;20085;-68
2021/09/15 06:59:05;;;;;;;28.25;19.95;;;;;;;16.26;68.24;98613.72;5100474;28;20491;-68
2021/09/15 07:01:30;;;;;;;27.80;20.25;;;;;;;16.28;68.13;98601.16;5109885;28;20023;-68
2021/09/15 07:03:55;;;;;;;25.98;18.50;;;;;;;16.35;68.58;98592.31;5089760;28;20518;-68
2021/09/15 07:06:21;;;;;;;28.25;20.20;;;;;;;16.43;68.50;98599.78;5088724;28;20030;-67
2021/09/15 07:08:50;;;;;;;28.67;19.58;;;;;;;16.55;68.68;98604.63;5093973;28;20032;-67
2021/09/15 07:11:15;;;;;;;26.65;20.10;;;;;;;16.60;68.93;98598.09;5100345;28;20023;-69
2021/09/15 07:13:41;;;;;;;27.50;19.27;;;;;;;16.72;68.56;98598.19;5093028;28;20108;-70
2021/09/15 07:16:06;;;;;;;28.05;18.42;;;;;;;16.81;68.38;98601.72;5086242;28;20035;-69
2021/09/15 07:18:32;;;;;;;28.80;19.02;;;;;;;16.87;68.85;98596.00;5108631;28;20074;-69
2021/09/15 07:20:58;;;;;;;24.20;17.98;;;;;;;16.94;68.85;98594.31;5104568;28;20089;-70
2021/09/15 07:23:25;;;;;;;24.08;18.40;;;;;;;16.99;68.53;98598.06;5104878;28;20106;-69
2021/09/15 07:25:50;;;;;;;29.02;18.50;;;;;;;17.07;68.93;98591.66;5099018;28;20023;-71
2021/09/15 07:28:16;;;;;;;25.83;19.08;;;;;;;17.13;68.76;98597.81;5089287;28;20024;-71
2021/09/15 07:30:41;;;;;;;25.75;19.17;;;;;;;17.21;68.58;98599.69;5088598;28;20035;-69
2021/09/15 07:33:07;;;;;;;24.77;18.50;;;;;;;17.31;68.76;98604.06;5085347;28;20049;-68
2021/09/15 07:35:32;;;;;;;22.38;16.77;;;;;;;17.38;68.45;98590.44;5088952;28;20084;-69
2021/09/15 07:37:58;;;;;;;23.48;17.73;;;;;;;17.44;68.47;98596.63;5088995;28;20055;-70
2021/09/15 07:40:23;;;;;;;23.27;17.50;;;;;;;17.51;68.41;98600.44;5086556;28;20030;-70
2021/09/15 07:42:48;;;;;;;24.90;17.17;;;;;;;17.59;68.55;98592.41;5090483;28;20032;-69
2021/09/15 07:45:14;;;;;;;23.45;17.25;;;;;;;17.62;68.24;98584.19;5099145;28;20503;-70
2021/09/15 07:47:41;;;;;;;22.83;17.88;;;;;;;17.69;68.45;98590.00;5092148;28;20040;-68
2021/09/15 07:50:08;;;;;;;23.35;17.88;;;;;;;17.74;68.11;98586.22;5092228;28;20076;-69
2021/09/15 07:52:34;;;;;;;23.20;17.23;;;;;;;17.83;68.28;98594.47;5083445;28;20024;-69
2021/09/15 07:54:59;;;;;;;26.42;17.85;;;;;;;17.94;68.26;98595.63;5086329;28;20392;-69
2021/09/15 07:57:25;;;;;;;22.67;16.90;;;;;;;18.04;68.08;98594.44;5103535;28;20027;-68
2021/09/15 07:59:50;;;;;;;22.90;16.63;;;;;;;18.12;67.92;98592.72;5087330;28;20147;-68
2021/09/15 08:02:16;;;;;;;21.25;15.98;;;;;;;18.25;68.09;98596.31;5093516;28;20038;-70
2021/09/15 08:04:41;;;;;;;21.10;15.48;;;;;;;18.36;68.16;98591.97;5092753;28;20081;-68
2021/09/15 08:07:06;;;;;;;22.02;15.60;;;;;;;18.47;68.02;98592.31;5087279;28;20054;-69
2021/09/15 08:09:32;;;;;;;19.42;14.13;;;;;;;18.60;67.81;98591.16;5085664;28;20028;-70
2021/09/15 08:11:57;;;;;;;21.02;14.73;;;;;;;18.70;67.51;98586.31;5109919;28;20024;-69
2021/09/15 08:14:23;;;;;;;22.08;14.40;;;;;;;18.81;67.50;98592.22;5104098;28;20048;-68
2021/09/15 08:16:48;;;;;;;20.05;15.00;;;;;;;18.88;67.25;98586.88;5090256;28;20036;-69
2021/09/15 08:19:14;;;;;;;19.48;13.80;;;;;;;18.96;67.16;98587.94;5098683;28;20062;-68
2021/09/15 08:21:42;;;;;;;22.45;15.20;;;;;;;19.04;67.13;98584.22;5080423;28;20480;-69
2021/09/15 08:24:08;;;;;;;21.90;14.00;;;;;;;19.19;66.89;98591.81;5109297;28;20077;-69
2021/09/15 08:26:33;;;;;;;19.08;13.82;;;;;;;19.30;66.87;98591.34;5104613;28;20027;-70
2021/09/15 08:28:59;;;;;;;18.85;12.90;;;;;;;19.39;66.49;98591.19;5092973;28;20569;-68
2021/09/15 08:31:24;;;;;;;25.73;13.63;;;;;;;19.51;66.45;98590.38;5102473;28;20096;-69
2021/09/15 08:33:49;;;;;;;18.20;13.02;;;;;;;19.59;65.87;98586.59;5093588;28;20101;-69
2021/09/15 08:36:16;;;;;;;15.70;11.77;;;;;;;19.68;65.82;98583.69;5092472;28;20059;-70
2021/09/15 08:38:41;;;;;;;18.08;12.30;;;;;;;19.76;65.58;98588.31;5096019;28;20061;-69
2021/09/15 08:41:07;;;;;;;20.35;12.57;;;;;;;19.85;65.65;98575.00;5102959;28;20020;-68
2021/09/15 08:43:36;;;;;;;16.02;11.95;;;;;;;19.96;65.23;98585.66;5093032;28;20479;-68
2021/09/15 08:46:03;;;;;;;15.20;11.65;;;;;;;20.04;64.80;98571.56;5089827;28;20122;-70
2021/09/15 08:48:34;;;;;;;15.02;11.35;;;;;;;20.13;64.63;98577.00;5089189;28;20028;-69
2021/09/15 08:51:01;;;;;;;16.25;12.02;;;;;;;20.26;64.47;98577.72;5092446;28;20055;-70
2021/09/15 08:53:27;;;;;;;13.68;11.40;;;;;;;20.36;64.40;98577.19;5092644;28;20020;-71
2021/09/15 08:55:52;;;;;;;15.60;10.95;;;;;;;20.50;64.12;98578.69;5091491;28;20070;-69
2021/09/15 08:58:19;;;;;;;16.95;12.75;;;;;;;20.60;63.73;98577.34;5089206;28;20431;-69
2021/09/15 09:00:46;;;;;;;14.93;10.90;;;;;;;20.70;63.54;98576.78;5092257;28;20032;-69
2021/09/15 09:03:12;;;;;;;13.90;10.85;;;;;;;20.79;63.32;98579.41;5096008;28;20444;-69
2021/09/15 09:05:37;;;;;;;17.58;11.15;;;;;;;20.88;62.85;98579.25;5094653;28;20032;-68
2021/09/15 09:08:18;;;;;;;13.15;10.57;;;;;;;20.96;62.88;98576.25;5099947;28;20023;-69
2021/09/15 09:10:50;;;;;;;14.52;10.48;;;;;;;21.07;62.67;98573.69;5113183;28;20119;-70
2021/09/15 09:13:19;;;;;;;13.43;10.70;;;;;;;21.18;62.42;98570.34;5101006;28;20081;-69
2021/09/15 09:15:45;;;;;;;13.80;10.23;;;;;;;21.22;61.92;98563.66;5092432;28;20107;-69
2021/09/15 09:18:10;;;;;;;11.48;9.40;;;;;;;21.29;61.87;98560.22;5090201;28;20112;-70
2021/09/15 09:20:36;;;;;;;12.75;10.55;;;;;;;21.37;61.72;98563.97;5090955;28;20550;-69
2021/09/15 09:23:13;;;;;;;12.68;9.80;;;;;;;21.47;61.38;98557.81;5091094;28;20030;-69
2021/09/15 09:25:59;;;;;;;13.02;9.90;;;;;;;21.59;61.08;98556.06;5092115;28;20035;-67
2021/09/15 09:28:29;;;;;;;15.75;9.95;;;;;;;21.72;61.30;98551.94;5089834;28;20023;-65
2021/09/15 09:31:04;;;;;;;13.07;9.95;;;;;;;21.80;61.21;98550.13;5089209;28;20123;-67
2021/09/15 09:33:30;;;;;;;12.10;9.52;;;;;;;21.91;61.08;98559.47;5089266;28;20032;-69
2021/09/15 09:36:02;;;;;;;12.48;9.38;;;;;;;21.98;60.61;98553.25;5091290;28;20031;-69
2021/09/15 09:38:35;;;;;;;11.30;9.00;;;;;;;22.04;59.60;98556.53;5092781;28;20027;-68
2021/09/15 09:41:17;;;;;;;11.07;9.23;;;;;;;22.10;59.27;98555.84;5100653;28;20031;-68
2021/09/15 09:43:47;;;;;;;9.95;7.70;;;;;;;22.18;59.05;98555.97;5092101;28;20501;-68
2021/09/15 09:46:20;;;;;;;9.98;7.95;;;;;;;22.26;59.40;98552.91;5091335;28;20035;-69
2021/09/15 09:48:47;;;;;;;13.10;8.13;;;;;;;22.39;58.89;98552.72;5095002;28;20019;-69
2021/09/15 09:51:26;;;;;;;8.73;7.65;;;;;;;22.46;58.26;98552.88;5093226;28;20193;-69
2021/09/15 09:54:09;;;;;;;9.52;8.63;;;;;;;22.50;58.12;98550.97;5112140;28;20026;-69
2021/09/15 09:56:35;;;;;;;11.45;8.70;;;;;;;22.56;57.60;98552.25;5098608;28;20476;-69
2021/09/15 09:59:03;;;;;;;11.55;8.75;;;;;;;22.60;57.34;98539.16;5090916;28;20084;-68
2021/09/15 10:01:31;;;;;;;11.13;8.43;;;;;;;22.68;56.63;98536.44;5100468;28;20020;-69
2021/09/15 10:04:00;;;;;;;10.43;8.27;;;;;;;22.79;57.46;98537.41;5111619;28;20106;-71
2021/09/15 10:06:26;;;;;;;11.00;8.60;;;;;;;22.87;57.08;98530.75;5095788;28;20047;-71
2021/09/15 10:08:53;;;;;;;9.85;8.18;;;;;;;22.96;57.08;98530.47;5090823;28;20062;-71
2021/09/15 10:11:20;;;;;;;11.50;8.30;;;;;;;23.02;57.00;98537.34;5091210;28;20024;-70
2021/09/15 10:13:46;;;;;;;10.13;7.93;;;;;;;23.10;56.78;98537.44;5091755;28;20032;-71
2021/09/15 10:16:14;;;;;;;9.80;8.02;;;;;;;23.17;56.64;98535.56;5091417;28;20388;-70
2021/09/15 10:18:41;;;;;;;8.57;7.68;;;;;;;23.27;56.76;98536.91;5090804;28;20303;-70
2021/09/15 10:21:07;;;;;;;9.95;7.68;;;;;;;23.33;56.10;98540.19;5091298;28;20055;-70
2021/09/15 10:23:36;;;;;;;9.40;7.75;;;;;;;23.36;55.48;98531.03;5081117;28;20601;-70
2021/09/15 10:26:30;;;;;;;9.10;8.00;;;;;;;23.42;55.84;98526.72;5099695;28;20043;-70
2021/09/15 10:29:28;;;;;;;10.73;7.80;;;;;;;23.51;55.24;98522.78;5090987;28;20059;-72
2021/09/15 10:32:04;;;;;;;10.90;6.80;;;;;;;23.58;55.17;98526.50;5089224;28;20058;-70
2021/09/15 10:34:39;;;;;;;9.70;7.35;;;;;;;23.67;55.29;98520.59;5087971;28;20032;-71
2021/09/15 10:37:13;;;;;;;8.98;6.90;;;;;;;23.77;55.15;98522.69;5088896;28;20028;-71
2021/09/15 10:40:00;;;;;;;10.40;7.60;;;;;;;23.82;54.71;98517.94;5100170;28;20027;-71
2021/09/15 10:42:56;;;;;;;10.68;7.32;;;;;;;23.89;53.49;98516.00;5093489;28;20016;-69
2021/09/15 10:45:25;;;;;;;11.30;7.40;;;;;;;23.97;53.60;98521.69;5101846;28;20047;-71
2021/09/15 10:47:55;;;;;;;10.15;7.18;;;;;;;24.04;53.89;98522.59;5091077;28;20478;-71
2021/09/15 10:50:29;;;;;;;9.73;6.32;;;;;;;24.14;52.92;98518.25;5091269;28;20043;-71
2021/09/15 10:53:03;;;;;;;4.43;3.72;;;;;;;24.21;51.53;98514.75;5091356;28;20024;-71
2021/09/15 10:55:50;;;;;;;5.93;4.95;;;;;;;24.27;51.46;98513.16;5091083;28;20043;-70
2021/09/15 10:58:15;;;;;;;7.95;6.05;;;;;;;24.34;52.19;98506.84;5088986;28;20024;-71
2021/09/15 11:00:49;;;;;;;5.93;5.30;;;;;;;24.42;51.29;98513.28;5095802;28;20145;-70
2021/09/15 11:03:24;;;;;;;8.77;6.55;;;;;;;24.45;50.73;98498.50;5091732;28;20020;-70
2021/09/15 11:05:50;;;;;;;10.20;6.50;;;;;;;24.52;50.17;98498.56;5098831;28;20036;-71
2021/09/15 11:08:48;;;;;;;7.22;6.03;;;;;;;24.55;50.72;98492.19;5089517;28;20427;-70
2021/09/15 11:11:19;;;;;;;7.65;5.85;;;;;;;24.62;50.54;98492.22;5107190;28;20043;-70
2021/09/15 11:13:57;;;;;;;5.45;4.60;;;;;;;24.74;50.75;98484.69;5110083;28;20030;-70
2021/09/15 11:16:23;;;;;;;6.00;4.75;;;;;;;24.82;49.35;98492.78;5090356;28;20047;-70
2021/09/15 11:19:04;;;;;;;7.00;5.00;;;;;;;24.91;49.93;98483.19;5089756;28;20027;-70
2021/09/15 11:21:31;;;;;;;5.57;5.03;;;;;;;24.96;49.34;98482.81;5071895;28;20044;-70
2021/09/15 11:24:10;;;;;;;6.40;4.90;;;;;;;25.01;48.48;98484.47;5072200;28;20069;-70
2021/09/15 11:26:38;;;;;;;7.90;4.90;;;;;;;25.10;48.59;98477.28;5090240;28;20534;-71